createdAt,value
2023-05-07T00:00:26.787Z,3.10
2023-05-07T00:03:15.122Z,3.50
2023-05-07T00:05:43.394Z,3.60
2023-05-07T00:08:11.473Z,3.10
2023-05-07T00:10:39.177Z,2.70
2023-05-07T00:13:06.918Z,2.80
2023-05-07T00:15:34.652Z,3.10
2023-05-07T00:18:02.676Z,3.30
2023-05-07T00:20:30.546Z,2.70
2023-05-07T00:22:58.224Z,2.80
2023-05-07T00:25:25.891Z,2.50
2023-05-07T00:27:53.581Z,2.40
2023-05-07T00:30:21.552Z,2.10
2023-05-07T00:32:50.155Z,1.90
2023-05-07T00:35:18.107Z,2.10
2023-05-07T00:37:45.758Z,1.80
2023-05-07T00:40:13.737Z,2.00
2023-05-07T00:42:41.593Z,1.80
2023-05-07T00:45:10.198Z,1.60
2023-05-07T00:47:37.943Z,1.60
2023-05-07T00:50:06.833Z,1.80
2023-05-07T00:52:35.307Z,1.10
2023-05-07T00:55:08.348Z,1.50
2023-05-07T00:57:42.439Z,1.40
2023-05-07T01:00:11.473Z,1.30
2023-05-07T01:02:40.819Z,1.10
2023-05-07T01:05:12.826Z,1.40
2023-05-07T01:07:43.029Z,1.40
2023-05-07T01:10:12.990Z,1.30
2023-05-07T01:12:42.347Z,1.30
2023-05-07T01:15:11.222Z,1.30
2023-05-07T01:17:43.672Z,1.30
2023-05-07T01:20:12.898Z,1.30
2023-05-07T01:22:41.507Z,0.90
2023-05-07T01:25:09.456Z,0.80
2023-05-07T01:27:38.292Z,1.20
2023-05-07T01:30:07.144Z,1.10
2023-05-07T01:32:53.372Z,1.50
2023-05-07T01:35:26.121Z,1.50
2023-05-07T01:37:55.476Z,1.50
2023-05-07T01:40:25.511Z,1.80
2023-05-07T01:42:55.203Z,2.40
2023-05-07T01:45:22.982Z,2.60
2023-05-07T01:47:51.281Z,1.90
2023-05-07T01:50:20.529Z,1.60
2023-05-07T01:52:50.682Z,1.60
2023-05-07T01:55:19.182Z,1.40
2023-05-07T01:57:46.819Z,1.10
2023-05-07T02:00:14.760Z,1.40
2023-05-07T02:02:42.721Z,1.40
2023-05-07T02:05:10.723Z,1.30
2023-05-07T02:07:38.437Z,1.40
2023-05-07T02:10:07.282Z,1.30
2023-05-07T02:12:34.954Z,1.20
2023-05-07T02:15:03.026Z,1.20
2023-05-07T02:17:33.044Z,1.50
2023-05-07T02:20:01.070Z,1.70
2023-05-07T02:22:28.760Z,3.40
2023-05-07T02:24:56.368Z,1.40
2023-05-07T02:27:24.067Z,1.60
2023-05-07T02:29:51.726Z,1.30
2023-05-07T02:32:19.442Z,1.30
2023-05-07T02:34:47.076Z,1.80
2023-05-07T02:37:14.739Z,1.60
2023-05-07T02:39:42.402Z,1.60
2023-05-07T02:42:10.070Z,1.80
2023-05-07T02:44:37.696Z,1.80
2023-05-07T02:47:06.364Z,1.30
2023-05-07T02:49:33.991Z,1.70
2023-05-07T02:52:01.784Z,1.40
2023-05-07T02:54:29.795Z,1.40
2023-05-07T02:56:57.474Z,1.70
2023-05-07T02:59:27.265Z,1.50
2023-05-07T03:01:55.056Z,1.40
2023-05-07T03:04:22.784Z,1.80
2023-05-07T03:06:50.515Z,1.70
2023-05-07T03:09:18.359Z,1.70
2023-05-07T03:11:46.109Z,1.50
2023-05-07T03:14:14.492Z,2.00
2023-05-07T03:16:42.292Z,1.60
2023-05-07T03:19:10.037Z,1.40
2023-05-07T03:21:37.926Z,1.10
2023-05-07T03:24:06.416Z,2.10
2023-05-07T03:26:34.178Z,1.50
2023-05-07T03:29:02.002Z,1.50
2023-05-07T03:31:29.958Z,1.30
2023-05-07T03:33:58.900Z,2.10
2023-05-07T03:36:29.393Z,1.60
2023-05-07T03:38:57.235Z,2.00
2023-05-07T03:41:24.956Z,1.70
2023-05-07T03:43:52.688Z,2.70
2023-05-07T03:46:20.606Z,1.80
2023-05-07T03:48:49.220Z,2.00
2023-05-07T03:51:17.026Z,2.00
2023-05-07T03:53:44.830Z,1.70
2023-05-07T03:56:15.208Z,2.10
2023-05-07T03:58:43.960Z,1.70
2023-05-07T04:01:12.682Z,2.00
2023-05-07T04:03:40.604Z,1.60
2023-05-07T04:06:08.518Z,1.60
2023-05-07T04:08:36.454Z,2.40
2023-05-07T04:11:04.829Z,1.70
2023-05-07T04:13:32.904Z,2.20
2023-05-07T04:16:04.407Z,2.50
2023-05-07T04:18:32.121Z,2.20
2023-05-07T04:21:00.058Z,1.60
2023-05-07T04:23:27.769Z,1.20
2023-05-07T04:25:55.595Z,1.60
2023-05-07T04:28:23.295Z,0.90
2023-05-07T04:30:51.008Z,1.10
2023-05-07T04:33:18.797Z,1.70
2023-05-07T04:35:47.321Z,0.90
2023-05-07T04:38:15.222Z,0.90
2023-05-07T04:40:43.473Z,1.40
2023-05-07T04:43:11.779Z,1.00
2023-05-07T04:45:42.345Z,1.30
2023-05-07T04:48:10.984Z,1.20
2023-05-07T04:50:39.490Z,1.10
2023-05-07T04:53:07.188Z,1.10
2023-05-07T04:55:35.253Z,0.90
2023-05-07T04:58:03.065Z,1.50
2023-05-07T05:00:30.945Z,1.40
2023-05-07T05:02:58.759Z,1.50
2023-05-07T05:05:27.198Z,1.00
2023-05-07T05:07:54.947Z,1.10
2023-05-07T05:10:24.596Z,1.60
2023-05-07T05:12:53.061Z,1.10
2023-05-07T05:15:21.048Z,1.00
2023-05-07T05:17:48.786Z,1.60
2023-05-07T05:20:16.786Z,1.10
2023-05-07T05:22:44.440Z,1.30
2023-05-07T05:25:12.189Z,1.50
2023-05-07T05:27:39.809Z,1.50
2023-05-07T05:30:08.412Z,1.10
2023-05-07T05:32:36.077Z,0.90
2023-05-07T05:35:04.124Z,1.20
2023-05-07T05:37:32.379Z,0.90
2023-05-07T05:40:00.001Z,1.30
2023-05-07T05:42:27.776Z,1.10
2023-05-07T05:44:55.680Z,1.30
2023-05-07T05:47:24.352Z,1.10
2023-05-07T05:49:51.985Z,1.50
2023-05-07T05:52:19.626Z,1.30
2023-05-07T05:54:47.250Z,1.30
2023-05-07T05:57:15.022Z,1.10
2023-05-07T05:59:43.512Z,1.30
2023-05-07T06:02:11.345Z,1.40
2023-05-07T06:04:39.264Z,1.50
2023-05-07T06:07:07.213Z,1.30
2023-05-07T06:09:34.826Z,1.20
2023-05-07T06:12:02.588Z,1.10
2023-05-07T06:14:30.641Z,1.20
2023-05-07T06:16:58.846Z,1.20
2023-05-07T06:19:27.819Z,1.10
2023-05-07T06:21:57.436Z,1.40
2023-05-07T06:24:25.693Z,1.40
2023-05-07T06:26:53.387Z,1.10
2023-05-07T06:29:21.298Z,0.50
2023-05-07T06:31:48.955Z,1.00
2023-05-07T06:34:16.700Z,0.90
2023-05-07T06:36:44.667Z,1.40
2023-05-07T06:39:12.302Z,1.20
2023-05-07T06:41:40.034Z,1.30
2023-05-07T06:44:09.653Z,1.60
2023-05-07T06:46:37.785Z,1.70
2023-05-07T06:49:06.024Z,1.50
2023-05-07T06:51:34.805Z,1.30
2023-05-07T06:54:03.106Z,1.40
2023-05-07T06:56:31.638Z,1.20
2023-05-07T06:59:00.826Z,1.50
2023-05-07T07:01:29.448Z,1.00
2023-05-07T07:03:57.247Z,1.20
2023-05-07T07:06:24.939Z,1.20
2023-05-07T07:08:52.723Z,1.10
2023-05-07T07:11:20.466Z,1.00
2023-05-07T07:13:48.128Z,1.20
2023-05-07T07:16:15.906Z,1.60
2023-05-07T07:18:43.698Z,1.10
2023-05-07T07:21:11.387Z,1.30
2023-05-07T07:23:38.988Z,1.60
2023-05-07T07:26:07.744Z,1.40
2023-05-07T07:28:35.897Z,1.20
2023-05-07T07:31:04.512Z,1.20
2023-05-07T07:33:32.106Z,1.40
2023-05-07T07:35:59.700Z,1.50
2023-05-07T07:38:27.385Z,2.20
2023-05-07T07:40:55.972Z,1.60
2023-05-07T07:43:23.580Z,1.50
2023-05-07T07:45:51.350Z,1.20
2023-05-07T07:48:18.995Z,2.00
2023-05-07T07:50:51.652Z,1.20
2023-05-07T07:53:20.617Z,1.30
2023-05-07T07:55:49.145Z,1.20
2023-05-07T07:58:40.829Z,1.20
2023-05-07T08:01:13.991Z,0.80
2023-05-07T08:03:43.540Z,1.00
2023-05-07T08:06:12.018Z,1.30
2023-05-07T08:08:47.776Z,1.30
2023-05-07T08:11:16.241Z,1.00
2023-05-07T08:14:05.029Z,1.40
2023-05-07T08:16:32.706Z,1.20
2023-05-07T08:19:00.875Z,1.50
2023-05-07T08:21:28.858Z,1.10
2023-05-07T08:24:08.871Z,1.20
2023-05-07T08:26:37.559Z,1.30
2023-05-07T08:29:05.222Z,1.40
2023-05-07T08:31:33.531Z,1.40
2023-05-07T08:34:01.355Z,1.50
2023-05-07T08:36:29.694Z,1.10
2023-05-07T08:38:57.577Z,1.40
2023-05-07T08:41:25.624Z,1.50
2023-05-07T08:43:55.372Z,1.70
2023-05-07T08:46:23.730Z,1.70
2023-05-07T08:48:53.000Z,1.20
2023-05-07T08:51:22.201Z,1.70
2023-05-07T08:53:51.272Z,1.60
2023-05-07T08:56:22.478Z,1.50
2023-05-07T08:58:50.621Z,1.50
2023-05-07T09:01:18.529Z,1.40
2023-05-07T09:03:47.922Z,1.80
2023-05-07T09:06:16.555Z,2.00
2023-05-07T09:08:55.102Z,1.50
2023-05-07T09:11:26.237Z,2.00
2023-05-07T09:13:58.913Z,2.20
2023-05-07T09:16:27.442Z,1.70
2023-05-07T09:18:56.258Z,1.30
2023-05-07T09:21:24.115Z,2.10
2023-05-07T09:23:54.000Z,1.80
2023-05-07T09:26:26.271Z,1.90
2023-05-07T09:28:56.719Z,1.70
2023-05-07T09:31:24.842Z,1.80
2023-05-07T09:33:54.334Z,1.40
2023-05-07T09:36:22.134Z,1.20
2023-05-07T09:38:52.357Z,1.60
2023-05-07T09:41:20.419Z,0.90
2023-05-07T09:43:55.848Z,1.30
2023-05-07T09:46:32.480Z,1.60
2023-05-07T09:49:03.412Z,1.30
2023-05-07T09:51:44.344Z,1.40
2023-05-07T09:54:12.984Z,1.20
2023-05-07T09:56:42.993Z,1.10
2023-05-07T09:59:16.926Z,1.30
2023-05-07T10:01:46.039Z,1.60
2023-05-07T10:04:15.236Z,1.70
2023-05-07T10:06:45.802Z,1.30
2023-05-07T10:09:14.809Z,1.40
2023-05-07T10:11:43.124Z,1.30
2023-05-07T10:14:11.803Z,1.10
2023-05-07T10:16:39.478Z,1.90
2023-05-07T10:19:10.899Z,1.50
2023-05-07T10:21:44.371Z,1.30
2023-05-07T10:24:22.699Z,1.50
2023-05-07T10:26:54.449Z,1.10
2023-05-07T10:29:28.286Z,1.80
2023-05-07T10:32:19.103Z,2.20
2023-05-07T10:34:52.102Z,2.50
2023-05-07T10:37:20.964Z,2.30
2023-05-07T10:39:48.875Z,1.80
2023-05-07T10:42:16.975Z,2.00
2023-05-07T10:44:46.121Z,1.40
2023-05-07T10:47:19.474Z,2.60
2023-05-07T10:49:47.552Z,3.10
2023-05-07T10:52:19.435Z,2.20
2023-05-07T10:54:47.489Z,2.00
2023-05-07T10:57:37.069Z,2.40
2023-05-07T11:00:39.061Z,2.20
2023-05-07T11:03:08.742Z,1.90
2023-05-07T11:05:38.920Z,2.10
2023-05-07T11:08:07.318Z,2.60
2023-05-07T11:10:57.158Z,1.90
2023-05-07T11:13:46.286Z,2.00
2023-05-07T11:16:25.944Z,2.00
2023-05-07T11:18:56.599Z,3.00
2023-05-07T11:21:44.091Z,2.40
2023-05-07T11:24:12.071Z,1.80
2023-05-07T11:26:46.992Z,2.70
2023-05-07T11:29:22.171Z,2.00
2023-05-07T11:31:56.812Z,1.90
2023-05-07T11:34:27.748Z,1.50
2023-05-07T11:36:56.890Z,1.80
2023-05-07T11:39:37.140Z,2.10
2023-05-07T11:42:05.060Z,2.20
2023-05-07T11:44:44.413Z,2.20
2023-05-07T11:47:17.927Z,2.40
2023-05-07T11:49:50.774Z,2.00
2023-05-07T11:52:20.751Z,2.30
2023-05-07T11:54:57.806Z,2.60
2023-05-07T11:57:26.719Z,2.80
2023-05-07T12:00:00.255Z,2.10
2023-05-07T12:02:29.321Z,2.60
2023-05-07T12:04:57.205Z,2.30
2023-05-07T12:07:25.994Z,3.10
2023-05-07T12:09:55.188Z,4.20
2023-05-07T12:12:23.022Z,2.80
2023-05-07T12:14:52.236Z,2.00
2023-05-07T12:17:20.087Z,1.90
2023-05-07T12:19:48.490Z,1.90
2023-05-07T12:22:21.321Z,2.30
2023-05-07T12:24:58.440Z,2.30
2023-05-07T12:27:27.437Z,2.00
2023-05-07T12:29:55.730Z,1.40
2023-05-07T12:32:24.215Z,2.90
2023-05-07T12:34:53.192Z,1.90
2023-05-07T12:37:27.865Z,2.60
2023-05-07T12:40:27.169Z,2.00
2023-05-07T12:43:00.230Z,2.10
2023-05-07T12:45:28.578Z,2.10
2023-05-07T12:47:56.327Z,2.20
2023-05-07T12:50:24.173Z,2.50
2023-05-07T12:52:51.942Z,3.20
2023-05-07T12:55:20.533Z,3.10
2023-05-07T12:57:53.852Z,3.10
2023-05-07T13:00:42.288Z,2.70
2023-05-07T13:03:11.034Z,2.40
2023-05-07T13:05:39.285Z,2.80
2023-05-07T13:08:07.123Z,2.10
2023-05-07T13:10:35.363Z,2.70
2023-05-07T13:13:04.347Z,2.80
2023-05-07T13:15:32.024Z,3.20
2023-05-07T13:17:59.900Z,3.10
2023-05-07T13:20:27.677Z,2.80
2023-05-07T13:22:55.523Z,2.40
2023-05-07T13:25:23.601Z,2.90
2023-05-07T13:28:02.743Z,2.80
2023-05-07T13:30:37.908Z,3.00
2023-05-07T13:33:05.956Z,2.40
2023-05-07T13:35:34.868Z,3.40
2023-05-07T13:38:02.950Z,2.50
2023-05-07T13:40:31.325Z,2.70
2023-05-07T13:43:02.786Z,2.80
2023-05-07T13:45:31.151Z,2.20
2023-05-07T13:47:59.250Z,2.00
2023-05-07T13:50:30.943Z,1.90
2023-05-07T13:52:58.740Z,2.60
2023-05-07T13:55:26.986Z,2.20
2023-05-07T13:58:07.062Z,2.50
2023-05-07T14:00:35.535Z,3.30
2023-05-07T14:03:05.120Z,3.10
2023-05-07T14:05:32.795Z,2.90
2023-05-07T14:08:00.866Z,2.30
2023-05-07T14:10:28.661Z,3.20
2023-05-07T14:12:56.417Z,2.50
2023-05-07T14:15:24.206Z,2.40
2023-05-07T14:17:52.287Z,3.00
2023-05-07T14:20:20.126Z,2.20
2023-05-07T14:22:47.857Z,2.90
2023-05-07T14:25:15.679Z,2.80
2023-05-07T14:27:43.722Z,3.60
2023-05-07T14:30:13.518Z,2.20
2023-05-07T14:32:41.282Z,3.40
2023-05-07T14:35:09.685Z,3.90
2023-05-07T14:37:37.643Z,2.50
2023-05-07T14:40:07.217Z,3.00
2023-05-07T14:42:35.303Z,2.90
2023-05-07T14:45:03.970Z,2.50
2023-05-07T14:47:31.600Z,2.60
2023-05-07T14:49:59.976Z,2.50
2023-05-07T14:52:28.140Z,2.70
2023-05-07T14:54:55.862Z,3.30
2023-05-07T14:57:23.525Z,3.40
2023-05-07T14:59:51.394Z,2.90
2023-05-07T15:02:21.297Z,2.90
2023-05-07T15:04:49.765Z,3.00
2023-05-07T15:07:17.504Z,3.40
2023-05-07T15:09:46.009Z,3.60
2023-05-07T15:12:14.660Z,3.60
2023-05-07T15:14:42.395Z,3.40
2023-05-07T15:17:10.358Z,2.80
2023-05-07T15:19:38.133Z,2.70
2023-05-07T15:22:06.745Z,3.00
2023-05-07T15:24:34.438Z,1.70
2023-05-07T15:27:03.746Z,2.60
2023-05-07T15:29:31.377Z,2.50
2023-05-07T15:31:59.369Z,2.90
2023-05-07T15:34:27.159Z,2.80
2023-05-07T15:36:57.781Z,3.50
2023-05-07T15:39:25.561Z,4.40
2023-05-07T15:41:53.226Z,4.10
2023-05-07T15:44:20.979Z,4.20
2023-05-07T15:46:48.569Z,3.50
2023-05-07T15:49:16.172Z,3.10
2023-05-07T15:51:43.894Z,3.50
2023-05-07T15:54:11.649Z,3.50
2023-05-07T15:56:39.459Z,3.30
2023-05-07T15:59:07.776Z,2.60
2023-05-07T16:01:35.615Z,2.70
2023-05-07T16:04:03.826Z,3.30
2023-05-07T16:06:31.605Z,3.40
2023-05-07T16:08:59.261Z,3.00
2023-05-07T16:11:30.646Z,3.90
2023-05-07T16:14:00.855Z,4.00
2023-05-07T16:16:30.218Z,3.30
2023-05-07T16:18:58.068Z,3.70
2023-05-07T16:21:25.758Z,3.20
2023-05-07T16:23:53.383Z,3.10
2023-05-07T16:26:21.316Z,2.80
2023-05-07T16:28:49.646Z,3.60
2023-05-07T16:31:18.923Z,2.20
2023-05-07T16:33:46.934Z,3.10
2023-05-07T16:36:14.659Z,2.50
2023-05-07T16:38:42.412Z,2.90
2023-05-07T16:41:10.768Z,3.10
2023-05-07T16:43:38.462Z,3.20
2023-05-07T16:46:06.178Z,3.40
2023-05-07T16:48:33.862Z,3.90
2023-05-07T16:51:01.716Z,2.70
2023-05-07T16:53:30.492Z,3.20
2023-05-07T16:55:58.288Z,3.20
2023-05-07T16:58:28.026Z,2.70
2023-05-07T17:00:55.723Z,3.20
2023-05-07T17:03:23.503Z,2.10
2023-05-07T17:05:52.484Z,2.40
2023-05-07T17:08:20.473Z,1.90
2023-05-07T17:10:48.442Z,3.00
2023-05-07T17:13:16.505Z,2.90
2023-05-07T17:15:46.557Z,2.60
2023-05-07T17:18:14.612Z,2.90
2023-05-07T17:20:42.504Z,3.00
2023-05-07T17:23:10.285Z,2.30
2023-05-07T17:25:38.018Z,3.50
2023-05-07T17:28:06.116Z,2.40
2023-05-07T17:30:34.220Z,3.30
2023-05-07T17:33:12.838Z,3.60
2023-05-07T17:35:44.844Z,2.60
2023-05-07T17:38:12.538Z,3.30
2023-05-07T17:40:40.276Z,3.30
2023-05-07T17:43:07.936Z,2.90
2023-05-07T17:45:36.193Z,2.60
2023-05-07T17:48:05.056Z,2.90
2023-05-07T17:50:33.291Z,3.80
2023-05-07T17:53:02.122Z,3.10
2023-05-07T17:55:30.542Z,3.40
2023-05-07T17:57:58.240Z,2.60
2023-05-07T18:00:26.016Z,2.50
2023-05-07T18:02:53.817Z,3.10
2023-05-07T18:05:21.698Z,2.10
2023-05-07T18:07:49.451Z,2.70
2023-05-07T18:10:17.229Z,3.00
2023-05-07T18:12:45.001Z,2.70
2023-05-07T18:15:13.246Z,2.60
2023-05-07T18:17:41.352Z,1.80
2023-05-07T18:20:11.695Z,2.30
2023-05-07T18:22:41.516Z,2.80
2023-05-07T18:25:10.404Z,3.10
2023-05-07T18:27:38.372Z,2.80
2023-05-07T18:30:07.007Z,1.30
2023-05-07T18:32:39.129Z,2.80
2023-05-07T18:35:07.467Z,2.70
2023-05-07T18:37:35.535Z,2.60
2023-05-07T18:40:03.965Z,2.30
2023-05-07T18:42:35.275Z,2.70
2023-05-07T18:45:05.649Z,3.00
2023-05-07T18:47:33.397Z,2.80
2023-05-07T18:50:01.213Z,3.20
2023-05-07T18:52:30.285Z,2.80
2023-05-07T18:54:58.056Z,2.20
2023-05-07T18:57:25.707Z,3.50
2023-05-07T18:59:54.854Z,3.00
2023-05-07T19:02:23.393Z,2.80
2023-05-07T19:04:51.801Z,2.40
2023-05-07T19:07:19.632Z,2.70
2023-05-07T19:10:00.951Z,2.10
2023-05-07T19:12:31.765Z,2.30
2023-05-07T19:14:59.494Z,2.20
2023-05-07T19:17:27.166Z,3.00
2023-05-07T19:19:54.893Z,2.30
2023-05-07T19:22:22.788Z,2.40
2023-05-07T19:24:50.525Z,2.50
2023-05-07T19:27:18.171Z,2.40
2023-05-07T19:29:46.061Z,2.10
2023-05-07T19:32:13.846Z,2.70
2023-05-07T19:34:42.138Z,3.20
2023-05-07T19:37:10.038Z,5.00
2023-05-07T19:39:37.741Z,2.50
2023-05-07T19:42:05.746Z,2.90
2023-05-07T19:44:33.399Z,2.20
2023-05-07T19:47:02.319Z,2.50
2023-05-07T19:49:30.066Z,2.60
2023-05-07T19:51:58.193Z,2.50
2023-05-07T19:54:25.947Z,2.80
2023-05-07T19:56:54.886Z,2.40
2023-05-07T19:59:24.471Z,3.60
2023-05-07T20:01:52.879Z,3.30
2023-05-07T20:04:20.576Z,2.60
2023-05-07T20:06:48.203Z,2.60
2023-05-07T20:09:15.914Z,2.00
2023-05-07T20:11:43.654Z,2.40
2023-05-07T20:14:12.088Z,2.10
2023-05-07T20:16:41.189Z,2.20
2023-05-07T20:19:08.965Z,2.00
2023-05-07T20:21:36.792Z,1.90
2023-05-07T20:24:05.508Z,1.90
2023-05-07T20:26:33.233Z,2.30
2023-05-07T20:29:00.958Z,1.60
2023-05-07T20:31:28.627Z,1.50
2023-05-07T20:33:56.483Z,1.60
2023-05-07T20:36:26.210Z,3.20
2023-05-07T20:38:54.058Z,2.70
2023-05-07T20:41:21.872Z,2.20
2023-05-07T20:43:49.491Z,1.80
2023-05-07T20:46:17.436Z,1.70
2023-05-07T20:48:45.132Z,1.80
2023-05-07T20:51:15.889Z,1.50
2023-05-07T20:53:46.028Z,1.70
2023-05-07T20:56:15.819Z,2.00
2023-05-07T20:58:43.434Z,2.10
2023-05-07T21:01:11.132Z,2.10
2023-05-07T21:03:38.890Z,3.60
2023-05-07T21:06:06.671Z,1.40
2023-05-07T21:08:34.461Z,2.20
2023-05-07T21:11:02.051Z,1.90
2023-05-07T21:13:29.902Z,2.10
2023-05-07T21:15:57.629Z,2.10
2023-05-07T21:18:26.892Z,3.00
2023-05-07T21:20:54.616Z,3.90
2023-05-07T21:23:22.303Z,3.50
2023-05-07T21:25:51.814Z,4.40
2023-05-07T21:28:19.591Z,3.50
2023-05-07T21:30:47.301Z,3.80
2023-05-07T21:33:15.212Z,2.90
2023-05-07T21:35:43.023Z,2.50
2023-05-07T21:38:12.530Z,2.30
2023-05-07T21:40:40.495Z,1.60
2023-05-07T21:43:08.293Z,1.70
2023-05-07T21:45:36.072Z,1.70
2023-05-07T21:48:04.208Z,2.20
2023-05-07T21:50:32.505Z,1.80
2023-05-07T21:53:00.327Z,1.70
2023-05-07T21:55:28.072Z,2.10
2023-05-07T21:58:04.918Z,2.20
2023-05-07T22:00:33.944Z,2.50
2023-05-07T22:03:01.912Z,2.70
2023-05-07T22:05:29.757Z,3.40
2023-05-07T22:07:57.820Z,2.70
2023-05-07T22:10:25.741Z,3.20
2023-05-07T22:12:53.620Z,3.90
2023-05-07T22:15:22.186Z,3.90
2023-05-07T22:17:49.931Z,3.70
2023-05-07T22:20:17.920Z,3.50
2023-05-07T22:22:52.661Z,3.80
2023-05-07T22:25:23.094Z,4.20
2023-05-07T22:27:51.637Z,3.90
2023-05-07T22:30:19.461Z,3.70
2023-05-07T22:32:47.564Z,4.00
2023-05-07T22:35:15.371Z,3.70
2023-05-07T22:37:43.180Z,3.80
2023-05-07T22:40:11.873Z,4.20
2023-05-07T22:42:39.876Z,4.00
2023-05-07T22:45:08.781Z,4.40
2023-05-07T22:47:36.565Z,4.20
2023-05-07T22:50:06.532Z,3.60
2023-05-07T22:52:34.903Z,4.00
2023-05-07T22:55:02.631Z,3.80
2023-05-07T22:57:30.952Z,3.70
2023-05-07T22:59:58.697Z,4.00
2023-05-07T23:02:28.918Z,4.80
2023-05-07T23:05:00.572Z,4.10
2023-05-07T23:07:28.852Z,4.40
2023-05-07T23:09:56.465Z,4.60
2023-05-07T23:12:24.209Z,5.30
2023-05-07T23:14:51.900Z,4.30
2023-05-07T23:17:19.576Z,4.60
2023-05-07T23:19:47.383Z,4.80
2023-05-07T23:22:15.998Z,6.00
2023-05-07T23:24:43.797Z,3.60
2023-05-07T23:27:11.580Z,4.10
2023-05-07T23:29:39.324Z,5.20
2023-05-07T23:32:06.969Z,4.80
2023-05-07T23:34:34.649Z,5.00
2023-05-07T23:37:02.449Z,5.20
2023-05-07T23:39:30.511Z,5.10
2023-05-07T23:41:58.143Z,5.20
2023-05-07T23:44:25.964Z,4.90
2023-05-07T23:46:53.818Z,4.90
2023-05-07T23:49:21.629Z,4.30
2023-05-07T23:51:49.320Z,5.30
2023-05-07T23:54:17.747Z,5.50
2023-05-07T23:56:46.722Z,6.50
2023-05-07T23:59:14.315Z,3.80
